Time;durP1;ratioP1;P1;durP2;ratioP2;P2;SDS_P1;SDS_P2;PMS_P1;PMS_P2;Temp;Humidity;BMP_temperature;BMP_pressure;BME280_temperature;BME280_humidity;BME280_pressure;Samples;Min_cycle;Max_cycle;Signal;HPM_P1;HPM_P2
2023/03/25 00:00:21;;;;;;;3.80;1.40;;;;;;;;;;5033781;28;20064;-76
2023/03/25 00:02:49;;;;;;;3.03;0.97;;;;;;;;;;5028037;28;20434;-76
2023/03/25 00:05:15;;;;;;;5.03;0.90;;;;;;;;;;5034389;28;20482;-76
2023/03/25 00:07:42;;;;;;;3.97;1.23;;;;;;;;;;5030197;28;20434;-76
2023/03/25 00:10:08;;;;;;;5.03;0.77;;;;;;;;;;5020153;28;20426;-76
2023/03/25 00:12:34;;;;;;;5.60;1.23;;;;;;;;;;5032044;28;20030;-76
2023/03/25 00:15:00;;;;;;;6.60;1.50;;;;;;;;;;5041010;28;20461;-76
2023/03/25 00:17:27;;;;;;;6.80;1.20;;;;;;;;;;5024808;28;20030;-76
2023/03/25 00:19:54;;;;;;;5.37;1.53;;;;;;;;;;5012169;28;20354;-76
2023/03/25 00:22:21;;;;;;;3.03;1.13;;;;;;;;;;5024367;28;20037;-76
2023/03/25 00:24:50;;;;;;;5.93;1.57;;;;;;;;;;5019206;28;20030;-76
2023/03/25 00:27:16;;;;;;;8.13;1.17;;;;;;;;;;5021760;28;20335;-76
2023/03/25 00:29:43;;;;;;;8.07;1.00;;;;;;;;;;5020558;28;20032;-76
2023/03/25 00:32:09;;;;;;;9.47;1.20;;;;;;;;;;5033958;28;20029;-76
2023/03/25 00:34:40;;;;;;;4.57;0.70;;;;;;;;;;5034242;28;20025;-76
2023/03/25 00:37:07;;;;;;;4.43;0.80;;;;;;;;;;5024770;28;20021;-76
2023/03/25 00:39:34;;;;;;;7.87;1.57;;;;;;;;;;5034341;28;20052;-76
2023/03/25 00:42:00;;;;;;;9.20;0.93;;;;;;;;;;5019635;28;20403;-76
2023/03/25 00:44:26;;;;;;;6.77;1.63;;;;;;;;;;5029073;28;20025;-76
2023/03/25 00:46:52;;;;;;;6.40;1.00;;;;;;;;;;5025586;28;20486;-76
2023/03/25 00:49:18;;;;;;;7.00;1.17;;;;;;;;;;5025161;28;20106;-76
2023/03/25 00:51:44;;;;;;;9.70;0.90;;;;;;;;;;5026648;28;20037;-76
2023/03/25 00:54:10;;;;;;;4.63;0.73;;;;;;;;;;5010825;28;20458;-76
2023/03/25 00:56:36;;;;;;;5.33;0.80;;;;;;;;;;5010163;28;20041;-75
2023/03/25 00:59:03;;;;;;;5.40;0.73;;;;;;;;;;5025837;28;20470;-76
2023/03/25 01:01:29;;;;;;;7.40;1.10;;;;;;;;;;5014038;28;20057;-75
2023/03/25 01:03:59;;;;;;;7.83;1.40;;;;;;;;;;5013791;28;20026;-76
2023/03/25 01:06:31;;;;;;;3.27;0.80;;;;;;;;;;5021423;28;20065;-75
2023/03/25 01:08:57;;;;;;;4.05;0.55;;;;;;;;;;5025809;28;20037;-75
2023/03/25 01:11:25;;;;;;;6.27;1.00;;;;;;;;;;5010624;28;20079;-76
2023/03/25 01:13:51;;;;;;;4.20;0.60;;;;;;;;;;5016474;28;20037;-75
2023/03/25 01:16:17;;;;;;;7.53;1.23;;;;;;;;;;5007850;28;20079;-75
2023/03/25 01:18:45;;;;;;;2.93;0.53;;;;;;;;;;5015563;28;20029;-76
2023/03/25 01:21:11;;;;;;;2.23;0.50;;;;;;;;;;5027505;28;20454;-75
2023/03/25 01:23:37;;;;;;;7.10;0.90;;;;;;;;;;5027553;28;20022;-75
2023/03/25 01:26:04;;;;;;;3.53;0.60;;;;;;;;;;5027662;28;20029;-76
2023/03/25 01:28:30;;;;;;;5.50;1.00;;;;;;;;;;5013152;28;20033;-75
2023/03/25 01:31:00;;;;;;;5.43;1.13;;;;;;;;;;5016683;28;20473;-75
2023/03/25 01:33:26;;;;;;;4.60;1.00;;;;;;;;;;5012070;28;20064;-75
2023/03/25 01:35:52;;;;;;;5.73;0.80;;;;;;;;;;5013228;28;20041;-75
2023/03/25 01:38:18;;;;;;;4.93;1.00;;;;;;;;;;5011031;28;20025;-75
2023/03/25 01:40:49;;;;;;;5.53;1.47;;;;;;;;;;5017405;28;20063;-76
2023/03/25 01:43:15;;;;;;;4.27;0.80;;;;;;;;;;5026584;28;20124;-76
2023/03/25 01:45:41;;;;;;;3.80;0.63;;;;;;;;;;5021687;28;20057;-76
2023/03/25 01:48:18;;;;;;;4.40;0.60;;;;;;;;;;5009683;28;20142;-76
2023/03/25 01:50:47;;;;;;;4.33;0.70;;;;;;;;;;5025789;28;20116;-75
2023/03/25 01:53:13;;;;;;;2.87;0.33;;;;;;;;;;5014156;28;20044;-76
2023/03/25 01:55:39;;;;;;;5.27;0.67;;;;;;;;;;5009759;28;20080;-76
2023/03/25 01:58:14;;;;;;;2.83;0.40;;;;;;;;;;5011694;28;20115;-76
2023/03/25 02:00:42;;;;;;;2.53;0.60;;;;;;;;;;5010076;28;20057;-76
2023/03/25 02:03:08;;;;;;;1.93;0.40;;;;;;;;;;5026315;28;20033;-76
2023/03/25 02:05:38;;;;;;;4.93;0.77;;;;;;;;;;5007787;28;20037;-76
2023/03/25 02:08:05;;;;;;;1.10;0.57;;;;;;;;;;5027145;28;20099;-76
2023/03/25 02:10:32;;;;;;;2.47;1.27;;;;;;;;;;5010094;28;20053;-76
2023/03/25 02:13:03;;;;;;;6.10;0.90;;;;;;;;;;5012488;28;20068;-76
2023/03/25 02:15:34;;;;;;;6.00;0.90;;;;;;;;;;5011356;28;20688;-74
2023/03/25 02:18:13;;;;;;;2.87;0.80;;;;;;;;;;5023525;28;20022;-76
2023/03/25 02:21:07;;;;;;;8.60;1.47;;;;;;;;;;5007449;28;20033;-74
2023/03/25 02:23:43;;;;;;;4.17;0.93;;;;;;;;;;5025834;28;20030;-75
2023/03/25 02:26:28;;;;;;;1.47;0.60;;;;;;;;;;5024189;28;20048;-76
2023/03/25 02:29:00;;;;;;;4.37;0.77;;;;;;;;;;5025231;28;20025;-75
2023/03/25 02:31:42;;;;;;;5.00;0.93;;;;;;;;;;5025754;28;20026;-75
2023/03/25 02:34:23;;;;;;;8.57;0.90;;;;;;;;;;5007872;28;20131;-76
2023/03/25 02:37:04;;;;;;;3.63;0.70;;;;;;;;;;5026502;28;20041;-75
2023/03/25 02:39:53;;;;;;;2.40;0.83;;;;;;;;;;5023680;28;20063;-75
2023/03/25 02:42:19;;;;;;;5.30;1.07;;;;;;;;;;4964836;28;20425;-75
2023/03/25 02:45:03;;;;;;;8.67;0.83;;;;;;;;;;5012791;28;20041;-75
2023/03/25 02:47:35;;;;;;;3.80;0.70;;;;;;;;;;5010833;28;20037;-75
2023/03/25 02:50:10;;;;;;;3.30;0.50;;;;;;;;;;5023475;28;20037;-75
2023/03/25 02:52:43;;;;;;;3.00;0.80;;;;;;;;;;5003585;28;20030;-76
2023/03/25 02:55:11;;;;;;;3.00;0.80;;;;;;;;;;5025762;28;20037;-76
2023/03/25 02:57:40;;;;;;;4.10;0.93;;;;;;;;;;5019753;28;20021;-76
2023/03/25 03:00:14;;;;;;;6.20;1.27;;;;;;;;;;5022743;28;20361;-75
2023/03/25 03:02:52;;;;;;;6.67;1.00;;;;;;;;;;5040017;28;20349;-76
2023/03/25 03:05:28;;;;;;;5.37;1.00;;;;;;;;;;5038574;28;20029;-76
2023/03/25 03:08:13;;;;;;;3.97;0.90;;;;;;;;;;5025422;28;20138;-76
2023/03/25 03:10:50;;;;;;;3.27;1.10;;;;;;;;;;5029114;28;20040;-75
2023/03/25 03:13:21;;;;;;;9.40;1.40;;;;;;;;;;5023787;28;20450;-75
2023/03/25 03:15:56;;;;;;;5.00;1.10;;;;;;;;;;5028153;28;20021;-76
2023/03/25 03:18:33;;;;;;;5.10;1.00;;;;;;;;;;5032945;28;20021;-76
2023/03/25 03:21:05;;;;;;;6.27;1.17;;;;;;;;;;5028966;28;20437;-75
2023/03/25 03:23:36;;;;;;;4.75;1.38;;;;;;;;;;5033869;28;20021;-75
2023/03/25 03:26:05;;;;;;;5.70;1.03;;;;;;;;;;5035325;28;20028;-76
2023/03/25 03:28:51;;;;;;;8.30;1.40;;;;;;;;;;5018482;28;20350;-75
2023/03/25 03:31:24;;;;;;;6.27;0.90;;;;;;;;;;5034551;28;20124;-76
2023/03/25 03:33:54;;;;;;;8.60;1.80;;;;;;;;;;5018941;28;20033;-76
2023/03/25 03:36:21;;;;;;;2.93;0.70;;;;;;;;;;5017939;28;20116;-76
2023/03/25 03:38:49;;;;;;;9.97;1.80;;;;;;;;;;5027070;28;20022;-76
2023/03/25 03:41:18;;;;;;;6.20;0.87;;;;;;;;;;5032124;28;20037;-76
2023/03/25 03:44:04;;;;;;;4.80;0.90;;;;;;;;;;5021710;28;20025;-76
2023/03/25 03:46:47;;;;;;;5.90;1.20;;;;;;;;;;5035658;28;20326;-76
2023/03/25 03:49:17;;;;;;;7.87;1.53;;;;;;;;;;5033979;28;20039;-76
2023/03/25 03:51:46;;;;;;;9.50;1.23;;;;;;;;;;5017371;28;20037;-75
2023/03/25 03:54:24;;;;;;;4.30;1.03;;;;;;;;;;5031116;28;20032;-76
2023/03/25 03:57:00;;;;;;;5.43;0.97;;;;;;;;;;5024870;28;20056;-76
2023/03/25 03:59:37;;;;;;;7.97;0.90;;;;;;;;;;5019746;28;20164;-76
2023/03/25 04:02:06;;;;;;;4.60;1.27;;;;;;;;;;5035277;28;20022;-76
2023/03/25 04:04:33;;;;;;;6.57;0.87;;;;;;;;;;5017884;28;20026;-76
2023/03/25 04:07:03;;;;;;;7.93;0.87;;;;;;;;;;5033845;28;20080;-76
2023/03/25 04:09:39;;;;;;;6.83;0.97;;;;;;;;;;5012859;28;20112;-76
2023/03/25 04:12:14;;;;;;;5.90;0.97;;;;;;;;;;5019996;28;20025;-76
2023/03/25 04:14:40;;;;;;;5.10;1.00;;;;;;;;;;5027334;28;20018;-75
2023/03/25 04:17:08;;;;;;;4.33;0.90;;;;;;;;;;5033842;28;20025;-75
2023/03/25 04:19:34;;;;;;;7.10;1.27;;;;;;;;;;5017783;28;20017;-75
2023/03/25 04:22:01;;;;;;;9.50;1.47;;;;;;;;;;5034128;28;20064;-76
2023/03/25 04:24:30;;;;;;;6.97;1.20;;;;;;;;;;5034091;28;20508;-75
2023/03/25 04:26:56;;;;;;;4.60;0.77;;;;;;;;;;5025490;28;20116;-75
2023/03/25 04:29:24;;;;;;;4.03;0.60;;;;;;;;;;5040127;28;20033;-75
2023/03/25 04:31:53;;;;;;;9.23;1.17;;;;;;;;;;5031153;28;20175;-75
2023/03/25 04:34:22;;;;;;;6.03;0.97;;;;;;;;;;5015528;28;20430;-75
2023/03/25 04:36:51;;;;;;;4.23;0.77;;;;;;;;;;5022948;28;20037;-75
2023/03/25 04:39:21;;;;;;;4.93;1.10;;;;;;;;;;5030175;28;20025;-76
2023/03/25 04:41:47;;;;;;;4.37;0.90;;;;;;;;;;5020189;28;20017;-75
2023/03/25 04:44:13;;;;;;;5.03;0.73;;;;;;;;;;5023083;28;20087;-76
2023/03/25 04:46:40;;;;;;;6.97;1.70;;;;;;;;;;5021038;28;20056;-76
2023/03/25 04:49:12;;;;;;;2.40;0.43;;;;;;;;;;5023232;28;20029;-76
2023/03/25 04:51:40;;;;;;;;;;;;;;;;;;5031797;28;20052;-75
2023/03/25 04:54:06;;;;;;;6.37;0.90;;;;;;;;;;5034065;28;19905;-76
2023/03/25 04:56:32;;;;;;;5.77;1.30;;;;;;;;;;5034231;28;20021;-75
2023/03/25 04:58:58;;;;;;;7.90;1.10;;;;;;;;;;5017263;28;20430;-76
2023/03/25 05:01:36;;;;;;;5.70;0.80;;;;;;;;;;5024486;28;20035;-76
2023/03/25 05:04:03;;;;;;;3.73;0.63;;;;;;;;;;5023925;28;20087;-76
2023/03/25 05:06:31;;;;;;;5.37;0.97;;;;;;;;;;5022933;28;20076;-76
2023/03/25 05:08:58;;;;;;;5.90;0.90;;;;;;;;;;5025355;28;20410;-76
2023/03/25 05:11:24;;;;;;;3.33;1.30;;;;;;;;;;5033402;28;20033;-76
2023/03/25 05:13:50;;;;;;;3.70;0.90;;;;;;;;;;5032607;28;20091;-76
2023/03/25 05:16:16;;;;;;;6.57;0.80;;;;;;;;;;5013339;28;20034;-76
2023/03/25 05:18:42;;;;;;;7.50;1.30;;;;;;;;;;5016753;28;20029;-76
2023/03/25 05:21:11;;;;;;;8.03;1.43;;;;;;;;;;5020656;28;20044;-76
2023/03/25 05:23:37;;;;;;;7.13;0.90;;;;;;;;;;5033883;28;20099;-76
2023/03/25 05:26:03;;;;;;;5.50;1.30;;;;;;;;;;5033068;28;20029;-76
2023/03/25 05:28:29;;;;;;;5.80;1.13;;;;;;;;;;5033492;28;20029;-76
2023/03/25 05:30:56;;;;;;;5.53;0.73;;;;;;;;;;5020971;28;20037;-76
2023/03/25 05:33:26;;;;;;;5.73;1.10;;;;;;;;;;5015624;28;20052;-76
2023/03/25 05:35:51;;;;;;;3.83;0.93;;;;;;;;;;5020275;28;20034;-76
2023/03/25 05:38:18;;;;;;;7.73;1.13;;;;;;;;;;5027361;28;20423;-76
2023/03/25 05:40:45;;;;;;;4.17;0.80;;;;;;;;;;5017856;28;20088;-76
2023/03/25 05:43:11;;;;;;;8.43;1.30;;;;;;;;;;5024624;28;20030;-76
2023/03/25 05:45:39;;;;;;;5.80;0.90;;;;;;;;;;5024238;28;20489;-76
2023/03/25 05:48:05;;;;;;;14.17;1.37;;;;;;;;;;5028979;28;20377;-75
2023/03/25 05:50:31;;;;;;;5.13;1.20;;;;;;;;;;5030152;28;20339;-75
2023/03/25 05:52:58;;;;;;;5.80;1.23;;;;;;;;;;5031603;28;20039;-76
2023/03/25 05:55:24;;;;;;;8.57;1.20;;;;;;;;;;5042877;28;20033;-76
2023/03/25 05:57:51;;;;;;;11.77;2.67;;;;;;;;;;5036825;28;20508;-76
2023/03/25 06:00:18;;;;;;;10.73;2.13;;;;;;;;;;5027667;28;20026;-75
2023/03/25 06:02:44;;;;;;;3.83;1.10;;;;;;;;;;5022286;28;20049;-75
2023/03/25 06:05:14;;;;;;;10.80;1.70;;;;;;;;;;5036767;28;20426;-76
2023/03/25 06:07:47;;;;;;;7.57;1.57;;;;;;;;;;5022143;28;20391;-75
2023/03/25 06:10:17;;;;;;;11.68;1.80;;;;;;;;;;5037116;28;20026;-76
2023/03/25 06:12:44;;;;;;;8.00;1.80;;;;;;;;;;5030310;28;20034;-75
2023/03/25 06:15:12;;;;;;;13.67;1.93;;;;;;;;;;5019624;28;20120;-75
2023/03/25 06:17:38;;;;;;;7.37;1.53;;;;;;;;;;5019548;28;20010;-75
2023/03/25 06:20:09;;;;;;;10.43;1.60;;;;;;;;;;5020198;28;20430;-75
2023/03/25 06:22:43;;;;;;;8.67;1.50;;;;;;;;;;5036172;28;20018;-75
2023/03/25 06:25:16;;;;;;;9.20;1.53;;;;;;;;;;5022623;28;20393;-76
2023/03/25 06:27:42;;;;;;;5.40;1.02;;;;;;;;;;5035508;28;20053;-76
2023/03/25 06:30:09;;;;;;;13.80;2.33;;;;;;;;;;5019109;28;20053;-76
2023/03/25 06:32:36;;;;;;;12.00;1.90;;;;;;;;;;5035673;28;20091;-76
2023/03/25 06:35:02;;;;;;;7.57;1.40;;;;;;;;;;5030784;28;20037;-76
2023/03/25 06:37:28;;;;;;;8.67;1.53;;;;;;;;;;5022345;28;20022;-76
2023/03/25 06:39:55;;;;;;;11.47;2.03;;;;;;;;;;5017394;28;20040;-76
2023/03/25 06:42:23;;;;;;;9.40;1.43;;;;;;;;;;5026000;28;20434;-76
2023/03/25 06:44:49;;;;;;;9.53;1.53;;;;;;;;;;5034306;28;20053;-76
2023/03/25 06:47:15;;;;;;;9.17;1.17;;;;;;;;;;5018624;28;20044;-76
2023/03/25 06:49:41;;;;;;;8.10;1.27;;;;;;;;;;5032438;28;20017;-76
2023/03/25 06:52:10;;;;;;;7.23;1.27;;;;;;;;;;5010848;28;20924;-75
2023/03/25 06:54:39;;;;;;;6.80;1.20;;;;;;;;;;5013460;28;20029;-75
2023/03/25 06:57:08;;;;;;;6.97;1.30;;;;;;;;;;5021879;28;20022;-76
2023/03/25 06:59:36;;;;;;;5.00;1.00;;;;;;;;;;5026842;28;20025;-75
2023/03/25 07:02:02;;;;;;;3.47;0.80;;;;;;;;;;5026243;28;20024;-76
2023/03/25 07:04:30;;;;;;;5.67;1.03;;;;;;;;;;5012929;28;20029;-75
2023/03/25 07:06:59;;;;;;;6.23;1.00;;;;;;;;;;5026283;28;20045;-76
2023/03/25 07:09:31;;;;;;;9.93;1.23;;;;;;;;;;5008869;28;20183;-76
2023/03/25 07:11:57;;;;;;;6.47;1.38;;;;;;;;;;5012034;28;21860;-77
2023/03/25 07:14:24;;;;;;;4.50;1.00;;;;;;;;;;5012491;28;20242;-76
2023/03/25 07:16:50;;;;;;;8.57;1.43;;;;;;;;;;5013143;28;20032;-75
2023/03/25 07:19:22;;;;;;;4.00;1.03;;;;;;;;;;5008826;28;20104;-75
2023/03/25 07:21:48;;;;;;;6.32;1.48;;;;;;;;;;5012230;28;20034;-75
2023/03/25 07:24:14;;;;;;;6.00;1.00;;;;;;;;;;5012706;28;20025;-76
2023/03/25 07:30:05;;;;;;;6.13;1.00;;;;;;;;;;5027210;28;20050;-76
2023/03/25 07:32:31;;;;;;;10.63;1.58;;;;;;;;;;4965568;28;20034;-76
2023/03/25 07:34:57;;;;;;;4.80;1.03;;;;;;;;;;5009937;28;20030;-76
2023/03/25 07:37:25;;;;;;;5.83;1.20;;;;;;;;;;5008531;28;20030;-75
2023/03/25 07:39:51;;;;;;;8.20;1.67;;;;;;;;;;5023682;28;20026;-76
2023/03/25 07:42:20;;;;;;;6.60;1.53;;;;;;;;;;5023799;28;20033;-75
2023/03/25 07:44:49;;;;;;;8.80;1.20;;;;;;;;;;5024878;28;20033;-74
2023/03/25 07:47:15;;;;;;;5.07;1.50;;;;;;;;;;5023100;28;20951;-75
2023/03/25 07:49:41;;;;;;;8.07;1.80;;;;;;;;;;5023183;28;20057;-75
2023/03/25 07:52:07;;;;;;;6.50;1.80;;;;;;;;;;5010082;28;20060;-76
2023/03/25 07:54:33;;;;;;;8.60;2.10;;;;;;;;;;5014197;28;20084;-76
2023/03/25 07:56:59;;;;;;;10.70;2.37;;;;;;;;;;5020784;28;20041;-76
2023/03/25 07:59:25;;;;;;;9.00;1.17;;;;;;;;;;5008650;28;20026;-76
2023/03/25 08:01:51;;;;;;;7.73;1.07;;;;;;;;;;5011907;28;20112;-75
2023/03/25 08:04:17;;;;;;;9.83;1.67;;;;;;;;;;5023871;28;20141;-75
2023/03/25 08:06:44;;;;;;;8.43;1.43;;;;;;;;;;5013253;28;20385;-76
2023/03/25 08:09:10;;;;;;;5.90;1.10;;;;;;;;;;5025478;28;20040;-75
2023/03/25 08:11:36;;;;;;;3.37;0.77;;;;;;;;;;5011302;28;20041;-76
2023/03/25 08:14:02;;;;;;;11.17;2.17;;;;;;;;;;5006294;28;20455;-75
2023/03/25 08:16:28;;;;;;;7.67;1.70;;;;;;;;;;5024238;28;20040;-76
2023/03/25 08:18:54;;;;;;;9.70;1.00;;;;;;;;;;5020043;28;20431;-76
2023/03/25 08:21:26;;;;;;;8.67;1.30;;;;;;;;;;4990618;28;20030;-76
2023/03/25 08:23:57;;;;;;;7.63;1.98;;;;;;;;;;5012654;28;20021;-76
2023/03/25 08:26:26;;;;;;;8.87;1.27;;;;;;;;;;5009816;28;20033;-76
2023/03/25 08:28:53;;;;;;;5.37;1.13;;;;;;;;;;5008680;28;20029;-75
2023/03/25 08:31:20;;;;;;;9.63;1.57;;;;;;;;;;5011814;28;20056;-75
2023/03/25 08:33:46;;;;;;;7.57;1.00;;;;;;;;;;5013696;28;20037;-76
2023/03/25 08:36:18;;;;;;;9.53;2.20;;;;;;;;;;5014836;28;20033;-74
2023/03/25 08:38:45;;;;;;;6.72;1.38;;;;;;;;;;5009369;28;20018;-75
2023/03/25 08:41:12;;;;;;;10.50;1.70;;;;;;;;;;5015285;28;20051;-75
2023/03/25 08:43:38;;;;;;;8.27;1.90;;;;;;;;;;5025583;28;20038;-75
2023/03/25 08:46:04;;;;;;;11.00;1.63;;;;;;;;;;5008148;28;20029;-75
2023/03/25 08:48:30;;;;;;;7.97;1.70;;;;;;;;;;5015559;28;20346;-74
2023/03/25 08:50:56;;;;;;;7.00;1.53;;;;;;;;;;5012704;28;20323;-74
2023/03/25 08:53:22;;;;;;;13.40;2.00;;;;;;;;;;5033162;28;20030;-75
2023/03/25 08:55:52;;;;;;;12.17;1.80;;;;;;;;;;5026999;28;20021;-75
2023/03/25 08:58:18;;;;;;;13.17;2.20;;;;;;;;;;5033505;28;20083;-75
2023/03/25 09:00:45;;;;;;;14.50;1.60;;;;;;;;;;5033533;28;20025;-75
2023/03/25 09:03:11;;;;;;;13.73;1.97;;;;;;;;;;5033044;28;20086;-75
2023/03/25 09:05:37;;;;;;;11.67;2.10;;;;;;;;;;5028220;28;20152;-76
2023/03/25 09:08:04;;;;;;;12.47;2.23;;;;;;;;;;5030233;28;20108;-75
2023/03/25 09:10:30;;;;;;;13.83;1.93;;;;;;;;;;5033690;28;20029;-75
2023/03/25 09:12:58;;;;;;;14.87;2.20;;;;;;;;;;5023600;28;20033;-75
2023/03/25 09:15:24;;;;;;;11.60;1.50;;;;;;;;;;5018752;28;20022;-75
2023/03/25 09:17:50;;;;;;;15.17;3.03;;;;;;;;;;5033099;28;20037;-76
2023/03/25 09:20:17;;;;;;;11.07;2.00;;;;;;;;;;5029579;28;20357;-76
2023/03/25 09:22:43;;;;;;;15.37;2.60;;;;;;;;;;5037721;28;20086;-76
2023/03/25 09:25:10;;;;;;;9.57;1.83;;;;;;;;;;5036390;28;20056;-76
2023/03/25 09:27:36;;;;;;;16.13;1.97;;;;;;;;;;5025596;28;20120;-76
2023/03/25 09:30:03;;;;;;;10.30;2.50;;;;;;;;;;5026417;28;20060;-76
2023/03/25 09:32:29;;;;;;;11.10;2.30;;;;;;;;;;5020927;28;20091;-75
2023/03/25 09:34:55;;;;;;;10.77;1.77;;;;;;;;;;5025019;28;20046;-76
2023/03/25 09:37:21;;;;;;;8.83;1.90;;;;;;;;;;5025009;28;20049;-75
2023/03/25 09:39:47;;;;;;;15.77;1.90;;;;;;;;;;5038788;28;20120;-75
2023/03/25 09:42:49;;;;;;;12.53;1.77;;;;;;;;;;5039616;28;20014;-75
2023/03/25 09:45:35;;;;;;;11.73;2.20;;;;;;;;;;4954248;28;20110;-75
2023/03/25 09:48:01;;;;;;;12.17;1.53;;;;;;;;;;5031775;28;20057;-75
2023/03/25 09:50:29;;;;;;;14.93;1.80;;;;;;;;;;5037098;28;20025;-75
2023/03/25 09:52:58;;;;;;;6.63;1.03;;;;;;;;;;5024660;28;20044;-75
2023/03/25 09:55:26;;;;;;;9.73;2.03;;;;;;;;;;5010534;28;20030;-75
2023/03/25 09:57:58;;;;;;;15.17;2.17;;;;;;;;;;5033054;28;20021;-76
2023/03/25 10:00:25;;;;;;;16.63;2.83;;;;;;;;;;5038479;28;20028;-76
2023/03/25 10:02:54;;;;;;;12.27;2.10;;;;;;;;;;5036517;28;20014;-76
2023/03/25 10:05:33;;;;;;;11.03;1.60;;;;;;;;;;5028443;28;20030;-76
2023/03/25 10:08:02;;;;;;;13.37;2.23;;;;;;;;;;5031684;28;20018;-75
2023/03/25 10:10:37;;;;;;;8.40;1.60;;;;;;;;;;5028461;28;20057;-76
2023/03/25 10:13:15;;;;;;;11.67;2.67;;;;;;;;;;5035615;28;20021;-76
2023/03/25 10:15:50;;;;;;;7.07;1.70;;;;;;;;;;5036508;28;20053;-75
2023/03/25 10:18:22;;;;;;;19.07;2.33;;;;;;;;;;5025229;28;20043;-75
2023/03/25 10:20:48;;;;;;;6.90;1.67;;;;;;;;;;5019867;28;20028;-75
2023/03/25 10:23:50;;;;;;;6.50;2.03;;;;;;;;;;5020395;28;20112;-75
2023/03/25 10:26:19;;;;;;;23.23;2.87;;;;;;;;;;4941030;29;20126;-75
2023/03/25 10:28:49;;;;;;;7.00;1.17;;;;;;;;;;5005547;28;20041;-75
2023/03/25 10:31:19;;;;;;;12.17;1.97;;;;;;;;;;5036702;28;20025;-76
2023/03/25 10:33:50;;;;;;;7.97;1.40;;;;;;;;;;5036130;28;20025;-75
2023/03/25 10:36:23;;;;;;;10.33;1.40;;;;;;;;;;5032538;28;20042;-75
2023/03/25 10:38:53;;;;;;;12.10;3.23;;;;;;;;;;5023676;28;20346;-75
2023/03/25 10:41:27;;;;;;;15.00;2.00;;;;;;;;;;5026209;28;20041;-75
2023/03/25 10:43:54;;;;;;;12.00;1.40;;;;;;;;;;5028858;28;20037;-75
2023/03/25 10:46:26;;;;;;;16.80;2.23;;;;;;;;;;5038329;28;20085;-75
2023/03/25 10:48:52;;;;;;;12.35;2.00;;;;;;;;;;5021911;28;20029;-76
2023/03/25 10:51:41;;;;;;;5.53;1.40;;;;;;;;;;5019364;28;20041;-75
2023/03/25 10:54:10;;;;;;;7.70;2.23;;;;;;;;;;5018350;28;20458;-76
2023/03/25 10:56:41;;;;;;;13.67;1.90;;;;;;;;;;5019298;28;20087;-76
2023/03/25 10:59:15;;;;;;;16.17;1.77;;;;;;;;;;5036266;28;20094;-75
2023/03/25 11:01:42;;;;;;;5.50;1.37;;;;;;;;;;5034999;28;20038;-76
2023/03/25 11:04:13;;;;;;;7.30;0.73;;;;;;;;;;5035799;28;20026;-75
2023/03/25 11:06:44;;;;;;;6.73;1.47;;;;;;;;;;5025790;28;20032;-76
2023/03/25 11:09:22;;;;;;;11.33;1.70;;;11.70;99.90;;;;;;5035152;28;20025;-76
2023/03/25 11:11:51;;;;;;;10.23;1.80;;;;;;;;;;5036320;28;20024;-75
2023/03/25 11:14:21;;;;;;;8.40;1.37;;;;;;;;;;5030718;28;20026;-75
2023/03/25 11:16:48;;;;;;;5.77;1.43;;;;;;;;;;5030122;28;20359;-75
2023/03/25 11:19:24;;;;;;;8.03;1.77;;;;;;;;;;5026255;28;20028;-75
2023/03/25 11:21:56;;;;;;;13.73;1.70;;;;;;;;;;5036794;28;20037;-75
2023/03/25 11:24:29;;;;;;;8.10;1.63;;;;;;;;;;5025519;28;20120;-76
2023/03/25 11:26:55;;;;;;;10.03;2.23;;;;;;;;;;5034056;28;20354;-75
2023/03/25 11:29:24;;;;;;;10.07;1.37;;;;;;;;;;5034962;28;20029;-76
2023/03/25 11:32:06;;;;;;;10.53;1.30;;;;;;;;;;5039123;28;20080;-75
2023/03/25 11:34:32;;;;;;;13.70;2.22;;;;;;;;;;5030598;28;20114;-75
2023/03/25 11:37:17;;;;;;;9.57;1.73;;;;;;;;;;5033770;28;20018;-75
2023/03/25 11:39:48;;;;;;;10.97;2.23;;;;;;;;;;5019069;28;20021;-75
2023/03/25 11:42:17;;;;;;;13.77;2.27;;;;;;;;;;5018153;28;20071;-75
2023/03/25 11:44:50;;;;;;;15.07;2.60;;;;;;;;;;5035172;28;20070;-75
2023/03/25 11:47:21;;;;;;;18.90;2.13;;;;;;;;;;5030412;28;20026;-75
2023/03/25 11:49:49;;;;;;;13.53;2.50;;;;;;;;;;5009707;28;20025;-75
2023/03/25 11:52:26;;;;;;;12.37;1.67;;;;;;;;;;5035364;28;20342;-75
2023/03/25 11:54:56;;;;;;;11.10;2.03;;;;;;;;;;5018090;28;20187;-75
2023/03/25 11:57:31;;;;;;;16.23;2.07;;;;;;;;;;5028363;28;20021;-75
2023/03/25 12:00:08;;;;;;;13.97;1.60;;;;;;;;;;5034809;28;20086;-75
2023/03/25 12:02:39;;;;;;;16.80;2.40;;;;;;;;;;5019157;28;20048;-75
2023/03/25 12:05:11;;;;;;;11.17;2.13;;;;;;;;;;5031037;28;20357;-75
2023/03/25 12:07:40;;;;;;;13.15;2.00;;;;;;;;;;5021895;28;20033;-75
2023/03/25 12:10:07;;;;;;;15.27;2.10;;;;;;;;;;5032815;28;20119;-75
2023/03/25 12:12:52;;;;;;;22.20;1.87;;;;;;;;;;5037858;28;20025;-75
2023/03/25 12:15:33;;;;;;;23.37;2.17;;;;;;;;;;5035659;28;20022;-75
2023/03/25 12:17:59;;;;;;;18.20;2.10;;;;;;;;;;5017857;28;20358;-75
2023/03/25 12:20:27;;;;;;;19.20;2.37;;;;;;;;;;5033963;28;20024;-75
2023/03/25 12:23:00;;;;;;;23.27;2.30;;;;;;;;;;5025898;28;20076;-75
2023/03/25 12:25:26;;;;;;;23.37;2.63;;;;;;;;;;5027334;28;20055;-76
2023/03/25 12:28:10;;;;;;;29.23;2.53;;;;;;;;;;5017949;28;20428;-75
2023/03/25 12:30:52;;;;;;;16.83;2.00;;;;;;;;;;5017463;28;20026;-75
2023/03/25 12:33:39;;;;;;;25.73;3.07;;;;;;;;;;5017422;28;20025;-75
2023/03/25 12:36:21;;;;;;;14.33;1.90;;;;;;;;;;5027119;28;20172;-75
2023/03/25 12:38:53;;;;;;;23.83;2.47;;;;;;;;;;5021787;28;20029;-75
2023/03/25 12:41:22;;;;;;;21.20;2.55;;;;;;;;;;5017975;28;20017;-75
2023/03/25 12:43:57;;;;;;;17.23;2.33;;;;;;;;;;5015247;28;20044;-76
2023/03/25 12:46:45;;;;;;;19.43;2.67;;;;;;;;;;5034148;28;20339;-75
2023/03/25 12:49:11;;;;;;;23.43;2.90;;;;;;;;;;5014796;28;20036;-75
2023/03/25 12:51:43;;;;;;;16.10;2.93;;;;;;;;;;5018684;28;20037;-75
2023/03/25 12:54:16;;;;;;;10.52;1.90;;;;;;;;;;5010020;28;20123;-75
2023/03/25 12:57:06;;;;;;;16.73;2.40;;;;;;;;;;5011272;28;20029;-74
2023/03/25 12:59:41;;;;;;;18.93;2.30;;;;;;;;;;5025704;28;20104;-75
2023/03/25 13:02:23;;;;;;;16.70;2.37;;;;;;;;;;5014328;28;20045;-74
2023/03/25 13:04:55;;;;;;;16.93;1.90;;;;;;;;;;5017339;28;20037;-75
2023/03/25 13:07:26;;;;;;;18.00;2.60;;;;;;;;;;5026451;28;20039;-75
2023/03/25 13:10:07;;;;;;;18.40;3.13;;;;;;;;;;5012417;28;20037;-75
2023/03/25 13:12:38;;;;;;;12.77;2.17;;;;;;;;;;5021503;28;20179;-74
2023/03/25 13:15:08;;;;;;;7.83;1.60;;;;;;;;;;5014133;28;20435;-75
2023/03/25 13:17:37;;;;;;;12.33;2.23;;;;;;;;;;5014271;28;20473;-75
2023/03/25 13:20:09;;;;;;;26.30;2.50;;;;;;;;;;5028512;28;20177;-75
2023/03/25 13:22:38;;;;;;;13.63;2.75;;;;;;;;;;5011605;28;20117;-74
2023/03/25 13:25:07;;;;;;;14.77;2.03;;;;;;;;;;5022177;28;20111;-75
2023/03/25 13:27:34;;;;;;;10.03;1.60;;;;;;;;;;5009978;28;20116;-75
2023/03/25 13:30:01;;;;;;;7.73;1.53;;;;;;;;;;5025258;28;20022;-74
2023/03/25 13:32:32;;;;;;;6.83;1.63;;;;;;;;;;5014815;28;20162;-75
2023/03/25 13:35:28;;;;;;;15.03;1.97;;;;;;;;;;5014148;28;20544;-75
2023/03/25 13:37:58;;;;;;;10.37;1.57;;;;;;;;;;5002212;28;20030;-74
2023/03/25 13:40:32;;;;;;;16.40;2.10;;;;;;;;;;5014336;28;20125;-74
2023/03/25 13:43:12;;;;;;;16.20;1.80;;;;;;;;;;5020594;28;20940;-74
2023/03/25 13:45:41;;;;;;;13.23;1.70;;;;;;;;;;5013123;28;20037;-75
2023/03/25 13:48:11;;;;;;;12.10;2.03;;;;;;;;;;5012810;28;20061;-74
2023/03/25 13:50:37;;;;;;;12.07;2.30;;;;;;;;;;5011959;28;20619;-75
2023/03/25 13:53:06;;;;;;;18.27;2.43;;;;;;;;;;5016100;28;20328;-75
2023/03/25 13:55:34;;;;;;;16.07;2.43;;;;;;;;;;5027655;28;20605;-75
2023/03/25 13:58:07;;;;;;;18.20;2.03;;;;;;;;;;5014980;28;20036;-75
2023/03/25 14:00:49;;;;;;;10.57;2.37;;;;;;;;;;5016967;28;20029;-75
2023/03/25 14:03:30;;;;;;;6.00;1.37;;;;;;;;;;5016442;28;20026;-75
2023/03/25 14:06:08;;;;;;;9.70;1.87;;;;;;;;;;5010414;28;20450;-76
2023/03/25 14:08:54;;;;;;;7.87;1.73;;;;;;;;;;5014485;28;20030;-75
2023/03/25 14:11:26;;;;;;;11.33;1.63;;;;;;;;;;5014138;28;20091;-75
2023/03/25 14:13:54;;;;;;;9.50;2.00;;;;;;;;;;5027994;28;20025;-74
2023/03/25 14:16:23;;;;;;;11.90;2.03;;;;;;;;;;5028733;28;20025;-77
2023/03/25 14:18:51;;;;;;;9.70;1.73;;;;;;;;;;5014396;28;20067;-74
2023/03/25 14:21:23;;;;;;;9.70;1.50;;;;;;;;;;5028589;28;21696;-76
2023/03/25 14:23:59;;;;;;;18.85;2.15;;;;;;;;;;5017720;28;20029;-76
2023/03/25 14:26:25;;;;;;;8.87;1.43;;;;;;;;;;5024409;28;20057;-76
2023/03/25 14:28:54;;;;;;;6.17;1.57;;;;;;;;;;5026640;28;20038;-76
2023/03/25 14:31:23;;;;;;;8.57;1.67;;;;;;;;;;5009283;28;20033;-76
2023/03/25 14:34:02;;;;;;;6.23;1.30;;;;;;;;;;5018954;28;20029;-75
2023/03/25 14:36:29;;;;;;;3.43;0.93;;;;;;;;;;5017474;28;20041;-75
2023/03/25 14:38:56;;;;;;;6.93;1.23;;;;;;;;;;5009803;28;20446;-74
2023/03/25 14:41:43;;;;;;;6.00;1.00;;;;;;;;;;5026720;28;20120;-75
2023/03/25 14:44:19;;;;;;;7.67;1.13;;;;;;;;;;5012074;28;20037;-74
2023/03/25 14:46:45;;;;;;;8.97;1.83;;;;;;;;;;5017801;28;20038;-74
2023/03/25 14:49:17;;;;;;;9.13;1.60;;;;;;;;;;5016506;28;20145;-74
2023/03/25 14:51:44;;;;;;;9.05;1.33;;;;;;;;;;5013239;28;20426;-75
2023/03/25 14:54:16;;;;;;;6.37;1.23;;;;;;;;;;5026089;28;20116;-75
2023/03/25 14:56:46;;;;;;;12.27;1.90;;;;;;;;;;5026718;28;20029;-75
2023/03/25 14:59:14;;;;;;;7.90;1.77;;;;;;;;;;5021105;28;20086;-75